Latest Weather Observations for Minlaton Airport

IDS60801

Issued at 8:32 pm CST Sunday 26 April 2015 (issued every 30 minutes, with the page automatically refreshed every 10 minutes)

About weather observations | Map of weather stations | Latest weather observations for SA | Other Formats
Station Details ID: 022031 Name: MINLATON AERO Lat: -34.75 Lon: 137.53 Height: 32.0 m
Data from the previous 72 hours. | See also: Recent months at Minlaton Airport
Date/Time
CST
Temp
°C
App
Temp
°C
Dew
Point
Rel
Hum
%
Delta-T
°C
Wind Press
QNH
hPa
Press
MSL
hPa
Rain
since 9 am
mm
Dir
 
Spd
km/h
Gust
km/h
Spd
kts
Gust
kts
26/08:30pm 13.0 10.6 8.7 75 2.1 S 11 13 6 7 1027.0 1027.0 -
26/08:00pm 13.1 10.3 8.4 73 2.3 SSW 13 15 7 8 1026.9 1026.9 0.0
26/07:30pm 13.0 11.0 8.7 75 2.1 S 9 11 5 6 1026.7 1026.7 0.0
26/07:00pm 13.2 11.2 8.5 73 2.3 WSW 9 9 5 5 1026.5 1026.5 0.0
26/06:30pm 13.4 11.4 8.7 73 2.3 SSW 9 11 5 6 1026.3 1026.3 0.0
26/06:00pm 13.8 11.4 8.6 71 2.6 S 11 13 6 7 1026.1 1026.1 0.0
26/05:30pm 14.3 10.6 8.0 66 3.1 S 17 22 9 12 1026.0 1026.0 0.0
26/05:00pm 14.6 10.4 8.3 66 3.2 S 20 24 11 13 1025.7 1025.7 0.0
26/04:30pm 14.6 10.4 8.1 65 3.2 S 20 28 11 15 1025.4 1025.4 0.0
26/04:00pm 14.8 10.2 8.1 64 3.4 S 22 30 12 16 1025.3 1025.3 0.0
26/03:30pm 15.4 10.6 8.9 65 3.3 S 24 30 13 16 1025.1 1025.1 0.0
26/03:00pm 15.9 10.8 5.8 51 4.8 SSW 22 28 12 15 1024.8 1024.8 0.0
26/02:30pm 17.5 12.0 7.5 52 5.0 SSW 26 35 14 19 1024.7 1024.7 0.0
26/02:00pm 16.5 11.0 5.8 49 5.2 S 24 33 13 18 1024.6 1024.6 0.0
26/01:30pm 16.1 10.7 6.5 53 4.7 S 24 30 13 16 1024.9 1024.9 0.0
26/01:00pm 15.2 11.0 8.4 64 3.4 SSW 20 28 11 15 1025.1 1025.1 0.0
26/12:30pm 15.4 10.4 9.7 69 2.9 S 26 33 14 18 1025.3 1025.3 0.0
26/12:00pm 14.9 9.6 9.7 71 2.7 SSW 28 37 15 20 1025.3 1025.3 0.0
26/11:30am 16.1 12.1 9.1 63 3.6 S 20 28 11 15 1025.5 1025.5 0.0
26/11:00am 15.9 11.6 7.7 58 4.1 S 20 28 11 15 1025.5 1025.5 0.0
26/10:00am 15.1 9.7 9.5 69 2.9 SSW 28 35 15 19 1025.6 1025.6 0.0
26/09:30am 13.6 11.0 9.5 76 2.1 SSW 13 20 7 11 1025.7 1025.7 0.0
26/09:00am 12.6 11.6 11.0 90 0.8 SSW 7 9 4 5 1025.6 1025.6 1.0
26/08:30am 11.3 10.2 10.5 95 0.4 S 7 9 4 5 1025.4 1025.4 1.0
26/08:00am 10.3 8.9 9.7 96 0.3 S 7 9 4 5 1025.1 1025.1 1.0
26/07:30am 8.7 6.9 8.1 96 0.3 SSE 7 7 4 4 1024.6 1024.6 1.0
26/07:00am 7.7 5.7 7.0 95 0.3 S 7 9 4 5 1024.2 1024.2 1.0
26/06:30am 7.9 5.1 7.1 95 0.4 S 11 13 6 7 1023.8 1023.8 1.0
26/06:00am 8.3 5.6 7.5 95 0.4 S 11 13 6 7 1023.4 1023.4 1.0
26/05:30am 8.2 4.7 7.4 95 0.4 SSE 15 15 8 8 1023.3 1023.3 1.0
26/05:00am 7.5 5.1 6.8 95 0.3 S 9 11 5 6 1023.1 1023.1 1.0
26/04:30am 8.5 6.3 7.9 96 0.3 S 9 11 5 6 1023.0 1023.0 1.0
26/04:00am 8.1 5.7 7.2 94 0.4 S 9 11 5 6 1022.6 1022.6 1.0
26/03:30am 8.3 6.0 7.4 94 0.4 SSW 9 11 5 6 1022.6 1022.6 1.0
26/03:00am 9.2 6.7 8.1 93 0.5 SSW 11 15 6 8 1022.5 1022.5 1.0
26/02:30am 8.9 6.3 7.8 93 0.5 S 11 13 6 7 1022.4 1022.4 1.0
26/02:00am 9.1 7.2 7.7 91 0.7 S 7 11 4 6 1022.5 1022.5 1.0
26/01:30am 10.9 8.4 9.7 92 0.6 S 13 17 7 9 1022.6 1022.6 1.0
26/01:00am 11.4 7.8 9.8 90 0.8 S 19 28 10 15 1022.7 1022.7 1.0
26/12:30am 11.0 8.6 8.6 85 1.2 SSW 11 13 6 7 1022.4 1022.4 1.0
26/12:00am 10.4 8.8 8.0 85 1.2 S 6 7 3 4 1022.4 1022.4 1.0
 
Date/Time
CST
Temp
°C
App
Temp
°C
Dew
Point
Rel
Hum
%
Delta-T
°C
Wind Press
QNH
hPa
Press
MSL
hPa
Rain
since 9 am
mm
Dir
 
Spd
km/h
Gust
km/h
Spd
kts
Gust
kts
25/11:30pm 10.1 7.9 8.0 87 1.0 SSW 9 13 5 7 1022.2 1022.2 1.0
25/11:00pm 9.7 7.0 7.5 86 1.0 S 11 13 6 7 1022.3 1022.3 1.0
25/10:30pm 9.9 6.9 7.5 85 1.1 S 13 15 7 8 1022.2 1022.2 1.0
25/10:00pm 10.7 7.5 8.5 86 1.1 S 15 17 8 9 1022.0 1022.0 1.0
25/09:30pm 10.7 7.5 8.6 87 1.0 S 15 17 8 9 1021.7 1021.7 1.0
25/09:00pm 10.1 7.3 8.4 89 0.8 S 13 15 7 8 1021.5 1021.5 1.0
25/08:30pm 10.1 7.5 7.9 86 1.1 S 11 13 6 7 1021.2 1021.2 1.0
25/08:00pm 12.2 9.4 9.9 86 1.2 S 15 19 8 10 1020.9 1020.9 1.0
25/07:30pm 12.6 9.6 10.5 87 1.1 S 17 20 9 11 1020.8 1020.8 1.0
25/07:00pm 12.6 9.0 10.7 88 1.0 S 20 24 11 13 1020.4 1020.4 1.0
25/06:30pm 13.0 9.0 10.5 85 1.3 S 22 32 12 17 1020.1 1020.1 1.0
25/06:00pm 12.9 8.6 10.6 86 1.2 S 24 32 13 17 1019.5 1019.5 1.0
25/05:30pm 13.1 7.6 10.5 84 1.3 S 30 39 16 21 1018.9 1018.9 1.0
25/05:00pm 14.4 9.6 11.6 83 1.5 S 28 43 15 23 1018.3 1018.3 0.8
25/04:30pm 14.1 8.1 12.0 87 1.1 S 35 44 19 24 1018.0 1018.0 0.8
25/04:00pm 15.5 9.7 10.7 73 2.5 SSW 32 50 17 27 1017.3 1017.3 0.8
25/03:30pm 14.7 8.6 11.7 82 1.6 S 35 50 19 27 1017.1 1017.1 0.8
25/03:00pm 15.5 9.6 12.3 81 1.7 S 35 48 19 26 1016.5 1016.5 0.8
25/02:33pm 14.3 9.8 12.5 89 1.0 S 28 50 15 27 1016.4 1016.4 0.8
25/02:30pm 14.3 10.7 12.9 91 0.8 S 24 39 13 21 1016.4 1016.4 0.8
25/02:06pm 16.0 11.4 12.2 78 2.1 S 28 46 15 25 1016.1 1016.1 0.0
25/02:00pm 15.8 12.2 13.1 84 1.5 S 24 33 13 18 1016.1 1016.1 0.0
25/01:30pm 16.9 11.7 10.1 64 3.6 SSW 28 35 15 19 1015.7 1015.6 0.0
25/01:00pm 17.3 11.9 9.5 60 4.1 SSW 28 35 15 19 1015.5 1015.4 0.0
25/12:30pm 18.0 11.6 9.4 57 4.5 SSW 33 44 18 24 1015.6 1015.5 0.0
25/12:00pm 17.2 10.7 8.1 55 4.6 SW 32 43 17 23 1015.6 1015.5 0.0
25/11:30am 16.6 11.9 9.3 62 3.8 SSW 24 35 13 19 1015.5 1015.4 0.0
25/11:00am 16.6 11.3 8.6 59 4.1 SSW 26 41 14 22 1015.5 1015.4 0.0
25/10:30am 16.2 11.2 9.6 65 3.4 SSW 26 35 14 19 1015.4 1015.3 0.0
25/10:00am 15.2 10.6 9.8 70 2.8 SSW 24 33 13 18 1015.3 1015.2 0.0
25/09:30am 15.0 10.8 11.0 77 2.1 SW 24 35 13 19 1014.9 1014.8 0.0
25/09:00am 14.6 10.4 9.6 72 2.6 SSW 22 30 12 16 1014.4 1014.3 4.6
25/08:30am 13.3 9.5 9.0 75 2.2 S 19 24 10 13 1014.1 1014.0 4.6
25/08:00am 12.0 8.4 8.5 79 1.7 SSW 17 22 9 12 1013.4 1013.3 4.6
25/07:30am 10.0 6.2 7.6 85 1.1 SSW 17 19 9 10 1012.6 1012.5 4.6
25/07:00am 10.6 5.8 7.3 80 1.6 S 22 28 12 15 1011.7 1011.6 4.6
25/06:30am 9.9 6.1 7.5 85 1.1 SW 17 20 9 11 1011.4 1011.3 4.6
25/06:00am 10.6 5.5 7.8 83 1.4 SSW 24 30 13 16 1010.6 1010.5 4.6
25/05:30am 10.9 6.0 8.3 84 1.3 SSW 24 30 13 16 1009.6 1009.5 4.6
25/05:00am 11.1 6.1 8.0 81 1.5 SSW 24 33 13 18 1008.7 1008.6 4.6
25/04:30am 11.0 5.6 8.2 83 1.4 SSW 26 35 14 19 1007.9 1007.8 4.6
25/04:00am 11.0 4.9 8.2 83 1.4 SSW 30 39 16 21 1007.2 1007.1 4.6
25/03:30am 11.4 4.4 8.4 82 1.5 SSW 35 48 19 26 1006.5 1006.4 4.6
25/03:00am 11.3 4.2 8.2 81 1.5 SSW 35 46 19 25 1006.1 1006.0 4.6
25/02:30am 11.5 3.3 8.4 81 1.5 SSW 41 54 22 29 1005.2 1005.1 4.6
25/02:00am 11.5 3.4 8.5 82 1.5 SSW 41 56 22 30 1004.4 1004.3 4.6
25/01:30am 11.5 2.9 8.2 80 1.6 SSW 43 56 23 30 1004.0 1003.9 4.6
25/01:00am 11.1 4.5 8.7 85 1.2 SW 33 43 18 23 1003.8 1003.7 4.6
25/12:30am 11.2 4.7 8.2 82 1.5 SW 32 41 17 22 1003.3 1003.2 4.6
25/12:00am 11.4 4.0 8.3 81 1.5 SW 37 48 20 26 1002.9 1002.8 4.6
 
Date/Time
CST
Temp
°C
App
Temp
°C
Dew
Point
Rel
Hum
%
Delta-T
°C
Wind Press
QNH
hPa
Press
MSL
hPa
Rain
since 9 am
mm
Dir
 
Spd
km/h
Gust
km/h
Spd
kts
Gust
kts
24/11:30pm 11.9 4.2 8.7 81 1.6 WSW 39 50 21 27 1002.2 1002.1 4.6
24/11:00pm 12.5 4.4 8.8 78 1.9 WSW 41 50 22 27 1002.2 1002.1 4.6
24/10:30pm 12.2 4.1 8.7 79 1.8 WSW 41 54 22 29 1002.6 1002.5 4.6
24/10:00pm 11.2 3.2 7.3 77 1.9 WSW 39 61 21 33 1002.6 1002.5 3.6
24/09:55pm 12.1 6.5 8.8 80 1.6 WSW 28 46 15 25 1002.7 1002.6 3.2
24/09:46pm 12.4 5.2 7.7 73 2.3 WSW 35 46 19 25 1002.7 1002.6 3.2
24/09:30pm 12.9 4.8 7.1 68 2.8 W 39 48 21 26 1002.7 1002.6 3.2
24/09:23pm 12.8 5.7 8.1 73 2.3 W 35 48 19 26 1002.7 1002.6 3.2
24/09:00pm 12.0 5.2 9.2 83 1.4 WNW 35 43 19 23 1003.1 1003.0 3.2
24/08:45pm 11.7 4.1 8.9 83 1.4 WNW 39 57 21 31 1003.4 1003.3 3.0
24/08:30pm 12.1 4.0 8.8 80 1.7 WNW 41 54 22 29 1003.4 1003.3 3.0
24/08:18pm 11.6 5.7 9.0 84 1.3 WNW 30 48 16 26 1003.5 1003.4 3.0
24/08:00pm 11.8 3.1 7.9 77 1.9 WNW 43 56 23 30 1004.1 1004.0 1.8
24/07:31pm 11.7 1.5 8.4 80 1.6 NW 52 70 28 38 1004.7 1004.6 1.8
24/07:30pm 11.7 1.1 8.4 80 1.6 NW 54 70 29 38 1004.7 1004.6 1.8
24/07:04pm 11.4 0.2 8.3 81 1.5 WNW 57 76 31 41 1005.1 1005.0 1.6
24/07:00pm 11.4 -0.7 7.9 79 1.7 WNW 61 76 33 41 1005.1 1005.0 1.6
24/06:56pm 11.6 -0.9 7.9 78 1.8 WNW 63 82 34 44 1005.0 1004.9 1.6
24/06:50pm 11.8 -0.4 7.3 74 2.2 WNW 61 82 33 44 1004.8 1004.7 1.4
24/06:35pm 12.2 2.7 6.5 68 2.7 NW 46 67 25 36 1005.1 1005.0 1.2
24/06:30pm 12.4 3.4 8.7 78 1.9 NW 46 61 25 33 1005.3 1005.2 1.2
24/06:09pm 12.0 2.5 8.3 78 1.8 WNW 48 74 26 40 1005.7 1005.6 1.0
24/06:07pm 12.2 3.0 7.9 75 2.1 NW 46 74 25 40 1005.7 1005.6 1.0
24/06:05pm 13.0 4.3 7.5 69 2.7 WNW 43 63 23 34 1005.6 1005.5 0.8
24/06:00pm 12.9 4.8 7.1 68 2.8 NW 39 52 21 28 1005.8 1005.7 0.8
24/05:42pm 12.8 3.8 6.6 66 3.0 WNW 43 61 23 33 1006.2 1006.1 0.8
24/05:30pm 12.4 4.8 7.5 72 2.4 WNW 37 50 20 27 1006.3 1006.2 0.8
24/05:04pm 11.1 0.3 7.8 80 1.6 W 54 87 29 47 1006.9 1006.8 0.8
24/05:00pm 11.3 1.0 6.4 72 2.3 W 50 87 27 47 1006.6 1006.5 0.6
24/04:58pm 12.5 3.1 5.4 62 3.3 WNW 44 87 24 47 1006.3 1006.2 0.6
24/04:57pm 13.5 5.0 6.8 64 3.2 WNW 41 83 22 45 1006.7 1006.6 0.6
24/04:30pm 15.1 6.5 6.7 57 4.1 WNW 41 50 22 27 1006.9 1006.8 0.6
24/04:00pm 15.1 6.4 6.1 55 4.3 WNW 41 54 22 29 1007.2 1007.1 0.6
24/03:30pm 16.0 8.0 5.6 50 5.0 WNW 37 46 20 25 1007.5 1007.4 0.6
24/03:00pm 15.4 8.2 9.3 67 3.2 W 37 46 20 25 1007.8 1007.7 0.6
24/02:33pm 14.6 6.6 7.6 63 3.5 W 39 61 21 33 1007.6 1007.5 0.6
24/02:30pm 15.2 7.4 6.7 57 4.2 W 37 48 20 26 1007.8 1007.7 0.6
24/02:00pm 16.1 7.1 6.5 53 4.7 W 43 52 23 28 1007.8 1007.7 0.6
24/01:30pm 14.6 5.6 7.2 61 3.6 W 44 54 24 29 1007.8 1007.7 0.6
24/01:03pm 12.9 3.9 7.1 68 2.8 WSW 44 63 24 34 1008.1 1008.0 0.6
24/01:00pm 14.0 4.4 7.8 66 3.1 WSW 48 63 26 34 1007.9 1007.8 0.6
24/12:30pm 15.0 7.0 7.5 61 3.7 WSW 39 54 21 29 1008.1 1008.0 0.6
24/12:07pm 15.7 6.0 7.7 59 4.0 W 48 70 26 38 1008.3 1008.2 0.6
24/12:00pm 15.4 6.1 7.4 59 4.0 WSW 46 59 25 32 1008.3 1008.2 0.6
24/11:30am 15.1 5.9 8.1 63 3.5 WSW 46 59 25 32 1008.6 1008.5 0.6
24/11:00am 14.4 5.7 7.9 65 3.2 WSW 43 57 23 31 1008.6 1008.5 0.6
24/10:31am 14.0 7.4 8.6 70 2.7 W 33 54 18 29 1008.7 1008.6 0.6
24/10:30am 13.9 7.5 8.7 71 2.6 W 32 48 17 26 1008.7 1008.6 0.6
24/10:29am 13.6 7.6 8.7 72 2.5 W 30 48 16 26 1008.7 1008.6 0.6
24/10:00am 13.0 6.8 10.0 82 1.5 WSW 33 48 18 26 1008.8 1008.7 0.6
24/09:30am 12.3 5.4 10.4 88 1.0 WSW 37 57 20 31 1009.0 1008.9 0.4
24/09:29am 12.4 5.9 10.5 88 1.0 WSW 35 57 19 31 1009.0 1008.9 0.4
24/09:00am 12.5 4.7 11.1 91 0.7 WSW 43 56 23 30 1008.6 1008.5 2.4
24/08:30am 12.0 2.7 10.4 90 0.8 WSW 50 65 27 35 1008.2 1008.1 2.0
24/08:12am 13.1 4.8 11.3 89 1.0 WNW 46 65 25 35 1008.3 1008.2 1.0
24/08:06am 15.3 8.0 11.5 78 2.0 NW 41 63 22 34 1008.0 1007.9 0.6
24/08:00am 16.1 9.8 13.6 85 1.4 NW 39 50 21 27 1007.7 1007.6 0.6
24/07:30am 15.2 8.7 12.9 86 1.3 NW 39 50 21 27 1007.5 1007.4 0.6
24/07:00am 15.3 9.3 13.3 88 1.1 NW 37 56 20 30 1007.4 1007.3 0.4
24/06:30am 14.3 10.3 13.0 92 0.7 NNW 26 32 14 17 1007.8 1007.7 0.4
24/06:00am 14.8 10.0 12.8 88 1.1 NW 30 39 16 21 1008.0 1007.9 0.4
24/05:30am 14.2 9.8 12.9 92 0.7 NW 28 37 15 20 1008.5 1008.4 0.4
24/05:00am 15.5 10.3 11.7 78 2.1 NW 30 35 16 19 1008.6 1008.5 0.0
24/04:30am 15.4 11.5 12.0 80 1.9 NW 24 33 13 18 1008.6 1008.5 0.0
24/04:00am 15.0 11.9 12.1 83 1.6 NW 20 28 11 15 1008.7 1008.6 0.0
24/03:30am 14.6 11.7 11.0 79 1.9 NW 17 20 9 11 1009.0 1008.9 0.0
24/03:00am 14.5 12.1 11.3 81 1.7 WNW 15 17 8 9 1009.6 1009.5 0.0
24/02:30am 14.5 12.3 12.2 86 1.3 WNW 15 19 8 10 1010.2 1010.1 0.0
24/02:00am 13.3 12.6 11.9 91 0.8 NNW 7 11 4 6 1010.6 1010.5 0.0
24/01:30am 13.0 11.8 11.6 91 0.7 N 9 11 5 6 1011.2 1011.1 0.0
24/01:00am 12.8 11.9 11.4 91 0.7 NNW 7 11 4 6 1011.4 1011.3 0.0
24/12:30am 12.7 12.0 11.3 91 0.7 N 6 9 3 5 1011.6 1011.5 0.0
24/12:00am 12.9 13.4 11.5 91 0.7 CALM 0 0 0 0 1011.9 1011.8 0.0
 
Date/Time
CST
Temp
°C
App
Temp
°C
Dew
Point
Rel
Hum
%
Delta-T
°C
Wind Press
QNH
hPa
Press
MSL
hPa
Rain
since 9 am
mm
Dir
 
Spd
km/h
Gust
km/h
Spd
kts
Gust
kts
23/11:30pm 12.6 13.0 11.2 91 0.7 CALM 0 0 0 0 1012.3 1012.2 0.0
23/11:00pm 12.6 12.9 10.8 89 0.9 CALM 0 4 0 2 1012.7 1012.6 0.0
23/10:30pm 13.0 13.0 11.1 88 1.0 SW 2 6 1 3 1013.3 1013.2 0.0
23/10:00pm 13.3 12.3 11.0 86 1.2 SSW 7 11 4 6 1013.6 1013.5 0.0
23/09:30pm 13.6 12.0 11.5 87 1.1 SSW 11 15 6 8 1013.5 1013.4 0.0
23/09:00pm 14.0 12.0 11.5 85 1.3 SSW 13 15 7 8 1013.8 1013.7 0.0

Other Formats:

Comma delimited format used in spreadsheet applications
http://www.bom.gov.au/fwo/IDS60801/IDS60801.95659.axf

JavaScript Object Notation format (JSON) in row-major order
http://www.bom.gov.au/fwo/IDS60801/IDS60801.95659.json